createdAt,value
2022-08-27T00:00:06.368Z,21.02
2022-08-27T00:01:17.045Z,21.01
2022-08-27T00:02:22.913Z,21.01
2022-08-27T00:03:31.562Z,20.99
2022-08-27T00:04:36.469Z,20.99
2022-08-27T00:05:39.604Z,20.99
2022-08-27T00:06:43.222Z,20.98
2022-08-27T00:07:50.082Z,20.99
2022-08-27T00:08:56.087Z,21.00
2022-08-27T00:10:00.406Z,20.97
2022-08-27T00:11:01.993Z,20.95
2022-08-27T00:12:08.019Z,20.94
2022-08-27T00:13:09.943Z,20.94
2022-08-27T00:14:13.011Z,20.95
2022-08-27T00:15:17.850Z,20.95
2022-08-27T00:16:21.669Z,20.95
2022-08-27T00:17:35.104Z,20.95
2022-08-27T00:18:38.845Z,20.94
2022-08-27T00:19:47.243Z,20.94
2022-08-27T00:20:53.433Z,20.94
2022-08-27T00:21:58.316Z,20.92
2022-08-27T00:23:06.443Z,20.89
2022-08-27T00:24:09.062Z,20.87
2022-08-27T00:25:12.301Z,20.87
2022-08-27T00:26:18.204Z,20.87
2022-08-27T00:27:23.430Z,20.83
2022-08-27T00:28:29.640Z,20.82
2022-08-27T00:29:31.799Z,20.81
2022-08-27T00:30:34.683Z,20.81
2022-08-27T00:31:36.740Z,20.79
2022-08-27T00:32:40.360Z,20.78
2022-08-27T00:33:43.431Z,20.77
2022-08-27T00:34:46.308Z,20.75
2022-08-27T00:35:48.342Z,20.76
2022-08-27T00:36:53.026Z,20.73
2022-08-27T00:37:56.275Z,20.75
2022-08-27T00:38:59.496Z,20.75
2022-08-27T00:40:01.648Z,20.75
2022-08-27T00:41:05.964Z,20.73
2022-08-27T00:42:08.267Z,20.74
2022-08-27T00:43:11.195Z,20.73
2022-08-27T00:44:13.344Z,20.72
2022-08-27T00:45:19.675Z,20.72
2022-08-27T00:46:25.252Z,20.71
2022-08-27T00:47:30.972Z,20.73
2022-08-27T00:48:35.892Z,20.73
2022-08-27T00:49:42.600Z,20.74
2022-08-27T00:50:47.932Z,20.73
2022-08-27T00:51:58.351Z,20.73
2022-08-27T00:53:05.222Z,20.75
2022-08-27T00:54:09.359Z,20.74
2022-08-27T00:55:17.956Z,20.74
2022-08-27T00:56:24.575Z,20.73
2022-08-27T00:57:28.097Z,20.75
2022-08-27T00:58:32.580Z,20.74
2022-08-27T00:59:35.205Z,20.73
2022-08-27T01:00:37.359Z,20.73
2022-08-27T01:01:59.920Z,20.70
2022-08-27T01:03:01.591Z,20.67
2022-08-27T01:04:06.425Z,20.66
2022-08-27T01:05:10.752Z,20.65
2022-08-27T01:06:16.291Z,20.63
2022-08-27T01:07:19.095Z,20.61
2022-08-27T01:08:25.768Z,20.62
2022-08-27T01:09:28.196Z,20.61
2022-08-27T01:10:30.998Z,20.60
2022-08-27T01:11:33.223Z,20.61
2022-08-27T01:12:37.327Z,20.60
2022-08-27T01:13:54.446Z,20.58
2022-08-27T01:15:04.739Z,20.57
2022-08-27T01:16:08.419Z,20.58
2022-08-27T01:17:12.169Z,20.57
2022-08-27T01:18:14.936Z,20.57
2022-08-27T01:19:28.697Z,20.56
2022-08-27T01:20:42.304Z,20.55
2022-08-27T01:21:51.196Z,20.55
2022-08-27T01:23:02.718Z,20.53
2022-08-27T01:24:13.856Z,20.52
2022-08-27T01:25:19.321Z,20.53
2022-08-27T01:26:22.887Z,20.52
2022-08-27T01:27:28.258Z,20.52
2022-08-27T01:28:37.820Z,20.53
2022-08-27T01:29:40.845Z,20.53
2022-08-27T01:30:44.144Z,20.52
2022-08-27T01:31:46.127Z,20.51
2022-08-27T01:32:50.944Z,20.50
2022-08-27T01:33:58.229Z,20.51
2022-08-27T01:35:02.236Z,20.52
2022-08-27T01:36:05.148Z,20.53
2022-08-27T01:37:08.791Z,20.53
2022-08-27T01:38:12.012Z,20.53
2022-08-27T01:39:26.928Z,20.53
2022-08-27T01:40:30.595Z,20.53
2022-08-27T01:41:33.373Z,20.53
2022-08-27T01:42:38.811Z,20.52
2022-08-27T01:43:41.367Z,20.52
2022-08-27T01:44:46.369Z,20.51
2022-08-27T01:45:50.713Z,20.51
2022-08-27T01:46:52.713Z,20.52
2022-08-27T01:47:56.763Z,20.53
2022-08-27T01:48:58.504Z,20.56
2022-08-27T01:50:02.347Z,20.57
2022-08-27T01:51:04.670Z,20.58
2022-08-27T01:52:07.429Z,20.58
2022-08-27T01:53:15.533Z,20.60
2022-08-27T01:54:19.844Z,20.59
2022-08-27T01:55:26.362Z,20.61
2022-08-27T01:56:33.372Z,20.60
2022-08-27T01:57:39.830Z,20.61
2022-08-27T01:58:43.631Z,20.62
2022-08-27T01:59:46.652Z,20.60
2022-08-27T02:00:52.039Z,20.60
2022-08-27T02:01:59.748Z,20.58
2022-08-27T02:03:02.892Z,20.58
2022-08-27T02:04:05.646Z,20.59
2022-08-27T02:05:08.400Z,20.58
2022-08-27T02:06:13.001Z,20.60
2022-08-27T02:07:14.636Z,20.58
2022-08-27T02:08:18.564Z,20.58
2022-08-27T02:09:20.257Z,20.59
2022-08-27T02:10:25.524Z,20.61
2022-08-27T02:11:27.666Z,20.63
2022-08-27T02:12:31.673Z,20.64
2022-08-27T02:13:34.179Z,20.65
2022-08-27T02:14:36.931Z,20.66
2022-08-27T02:15:39.668Z,20.66
2022-08-27T02:16:52.077Z,20.68
2022-08-27T02:17:56.151Z,20.67
2022-08-27T02:18:58.172Z,20.67
2022-08-27T02:20:01.406Z,20.66
2022-08-27T02:21:03.098Z,20.63
2022-08-27T02:22:05.889Z,20.62
2022-08-27T02:23:08.788Z,20.63
2022-08-27T02:24:11.535Z,20.64
2022-08-27T02:25:15.364Z,20.66
2022-08-27T02:26:18.074Z,20.67
2022-08-27T02:27:21.411Z,20.67
2022-08-27T02:28:26.064Z,20.69
2022-08-27T02:29:27.860Z,20.68
2022-08-27T02:30:32.649Z,20.66
2022-08-27T02:31:36.935Z,20.65
2022-08-27T02:32:39.952Z,20.64
2022-08-27T02:33:41.875Z,20.63
2022-08-27T02:34:45.988Z,20.63
2022-08-27T02:35:47.646Z,20.62
2022-08-27T02:36:50.243Z,20.64
2022-08-27T02:37:52.145Z,20.63
2022-08-27T02:38:55.828Z,20.63
2022-08-27T02:39:58.847Z,20.65
2022-08-27T02:41:01.490Z,20.63
2022-08-27T02:42:03.680Z,20.64
2022-08-27T02:43:06.752Z,20.65
2022-08-27T02:44:11.193Z,20.65
2022-08-27T02:45:17.704Z,20.66
2022-08-27T02:46:20.282Z,20.65
2022-08-27T02:47:21.948Z,20.65
2022-08-27T02:48:25.446Z,20.64
2022-08-27T02:49:27.232Z,20.64
2022-08-27T02:50:30.288Z,20.63
2022-08-27T02:51:31.970Z,20.62
2022-08-27T02:52:36.552Z,20.63
2022-08-27T02:53:39.726Z,20.62
2022-08-27T02:54:42.441Z,20.62
2022-08-27T02:55:44.988Z,20.61
2022-08-27T02:56:47.646Z,20.61
2022-08-27T02:57:49.553Z,20.63
2022-08-27T02:58:52.428Z,20.63
2022-08-27T02:59:55.400Z,20.64
2022-08-27T03:00:58.391Z,20.64
2022-08-27T03:02:00.148Z,20.63
2022-08-27T03:03:03.828Z,20.63
2022-08-27T03:04:05.467Z,20.65
2022-08-27T03:05:10.088Z,20.66
2022-08-27T03:06:11.830Z,20.65
2022-08-27T03:07:18.894Z,20.65
2022-08-27T03:08:20.844Z,20.64
2022-08-27T03:09:23.497Z,20.62
2022-08-27T03:10:25.298Z,20.61
2022-08-27T03:11:27.997Z,20.57
2022-08-27T03:12:29.613Z,20.55
2022-08-27T03:13:32.180Z,20.54
2022-08-27T03:14:33.782Z,20.53
2022-08-27T03:15:37.925Z,20.52
2022-08-27T03:16:39.894Z,20.53
2022-08-27T03:18:02.689Z,20.55
2022-08-27T03:19:06.649Z,20.53
2022-08-27T03:20:12.089Z,20.53
2022-08-27T03:21:19.308Z,20.50
2022-08-27T03:22:21.089Z,20.47
2022-08-27T03:23:26.900Z,20.46
2022-08-27T03:24:28.486Z,20.46
2022-08-27T03:25:32.127Z,20.45
2022-08-27T03:26:34.737Z,20.43
2022-08-27T03:27:37.591Z,20.43
2022-08-27T03:28:39.351Z,20.41
2022-08-27T03:29:41.902Z,20.40
2022-08-27T03:30:48.572Z,20.39
2022-08-27T03:31:51.125Z,20.41
2022-08-27T03:32:52.889Z,20.40
2022-08-27T03:33:57.172Z,20.41
2022-08-27T03:34:59.095Z,20.43
2022-08-27T03:36:01.689Z,20.43
2022-08-27T03:37:04.314Z,20.45
2022-08-27T03:38:05.956Z,20.44
2022-08-27T03:39:08.561Z,20.45
2022-08-27T03:40:11.176Z,20.47
2022-08-27T03:41:18.010Z,20.47
2022-08-27T03:42:19.599Z,20.48
2022-08-27T03:43:23.513Z,20.48
2022-08-27T03:44:25.202Z,20.48
2022-08-27T03:45:27.924Z,20.48
2022-08-27T03:46:31.083Z,20.49
2022-08-27T03:47:34.622Z,20.49
2022-08-27T03:48:36.395Z,20.47
2022-08-27T03:49:39.231Z,20.48
2022-08-27T03:50:43.214Z,20.47
2022-08-27T03:51:46.213Z,20.45
2022-08-27T03:52:48.301Z,20.44
2022-08-27T03:53:51.065Z,20.43
2022-08-27T03:54:53.000Z,20.39
2022-08-27T03:55:56.341Z,20.38
2022-08-27T03:56:57.917Z,20.37
2022-08-27T03:58:00.491Z,20.34
2022-08-27T03:59:02.085Z,20.31
2022-08-27T04:00:07.296Z,20.30
2022-08-27T04:01:09.385Z,20.29
2022-08-27T04:02:14.940Z,20.30
2022-08-27T04:03:16.675Z,20.29
2022-08-27T04:04:19.263Z,20.26
2022-08-27T04:05:22.465Z,20.29
2022-08-27T04:06:25.042Z,20.27
2022-08-27T04:07:26.721Z,20.25
2022-08-27T04:08:30.857Z,20.24
2022-08-27T04:09:32.445Z,20.20
2022-08-27T04:10:35.177Z,20.19
2022-08-27T04:11:37.059Z,20.20
2022-08-27T04:12:41.500Z,20.22
2022-08-27T04:13:43.924Z,20.22
2022-08-27T04:14:46.927Z,20.20
2022-08-27T04:15:51.159Z,20.20
2022-08-27T04:16:54.348Z,20.20
2022-08-27T04:17:57.492Z,20.20
2022-08-27T04:19:00.510Z,20.20
2022-08-27T04:20:24.976Z,20.22
2022-08-27T04:21:26.719Z,20.22
2022-08-27T04:22:28.595Z,20.21
2022-08-27T04:23:31.498Z,20.20
2022-08-27T04:24:34.875Z,20.19
2022-08-27T04:25:40.985Z,20.18
2022-08-27T04:26:45.627Z,20.17
2022-08-27T04:27:48.343Z,20.17
2022-08-27T04:28:51.211Z,20.15
2022-08-27T04:29:55.819Z,20.14
2022-08-27T04:30:57.507Z,20.13
2022-08-27T04:32:00.166Z,20.12
2022-08-27T04:33:03.118Z,20.10
2022-08-27T04:34:07.605Z,20.10
2022-08-27T04:35:11.672Z,20.09
2022-08-27T04:36:14.932Z,20.06
2022-08-27T04:37:23.360Z,20.04
2022-08-27T04:38:26.158Z,20.02
2022-08-27T04:39:31.599Z,20.02
2022-08-27T04:40:51.719Z,20.04
2022-08-27T04:41:57.593Z,20.04
2022-08-27T04:42:59.237Z,20.07
2022-08-27T04:44:05.092Z,20.06
2022-08-27T04:45:07.684Z,20.05
2022-08-27T04:46:10.275Z,20.04
2022-08-27T04:47:13.287Z,20.06
2022-08-27T04:48:19.443Z,20.07
2022-08-27T04:49:21.270Z,20.09
2022-08-27T04:50:24.379Z,20.10
2022-08-27T04:51:26.383Z,20.10
2022-08-27T04:52:29.792Z,20.08
2022-08-27T04:53:31.396Z,20.09
2022-08-27T04:54:34.407Z,20.08
2022-08-27T04:55:41.580Z,20.07
2022-08-27T04:56:44.161Z,20.08
2022-08-27T04:57:45.801Z,20.08
2022-08-27T04:58:48.441Z,20.11
2022-08-27T04:59:51.071Z,20.14
2022-08-27T05:00:55.876Z,20.15
2022-08-27T05:01:58.461Z,20.14
2022-08-27T05:03:00.120Z,20.13
2022-08-27T05:04:04.673Z,20.13
2022-08-27T05:05:08.312Z,20.13
2022-08-27T05:06:10.469Z,20.14
2022-08-27T05:07:13.019Z,20.13
2022-08-27T05:08:14.785Z,20.12
2022-08-27T05:09:18.786Z,20.12
2022-08-27T05:10:21.701Z,20.10
2022-08-27T05:11:28.315Z,20.09
2022-08-27T05:12:29.914Z,20.07
2022-08-27T05:13:32.912Z,20.08
2022-08-27T05:14:35.842Z,20.07
2022-08-27T05:15:48.833Z,20.06
2022-08-27T05:16:50.553Z,20.06
2022-08-27T05:17:53.641Z,20.06
2022-08-27T05:18:55.804Z,20.08
2022-08-27T05:19:59.856Z,20.09
2022-08-27T05:21:01.677Z,20.12
2022-08-27T05:22:04.444Z,20.12
2022-08-27T05:23:06.093Z,20.12
2022-08-27T05:24:08.920Z,20.11
2022-08-27T05:25:11.203Z,20.10
2022-08-27T05:26:13.955Z,20.10
2022-08-27T05:27:15.675Z,20.09
2022-08-27T05:28:21.381Z,20.07
2022-08-27T05:29:31.626Z,20.06
2022-08-27T05:30:36.791Z,20.03
2022-08-27T05:31:40.782Z,20.03
2022-08-27T05:32:42.898Z,20.04
2022-08-27T05:33:46.359Z,20.04
2022-08-27T05:34:48.165Z,20.05
2022-08-27T05:35:53.753Z,20.03
2022-08-27T05:36:55.336Z,20.02
2022-08-27T05:38:00.186Z,20.02
2022-08-27T05:39:04.537Z,20.00
2022-08-27T05:40:08.454Z,20.01
2022-08-27T05:41:12.772Z,20.02
2022-08-27T05:42:15.657Z,20.02
2022-08-27T05:43:18.522Z,20.00
2022-08-27T05:45:44.337Z,20.02
2022-08-27T05:46:46.902Z,20.04
2022-08-27T05:47:48.849Z,20.05
2022-08-27T05:48:52.633Z,20.03
2022-08-27T05:49:55.142Z,20.01
2022-08-27T05:50:59.203Z,20.01
2022-08-27T05:52:00.800Z,20.02
2022-08-27T05:53:03.396Z,20.03
2022-08-27T05:54:08.822Z,20.05
2022-08-27T05:55:12.347Z,20.05
2022-08-27T05:56:15.667Z,20.06
2022-08-27T05:57:18.251Z,20.08
2022-08-27T05:58:38.667Z,20.11
2022-08-27T05:59:58.888Z,20.12
2022-08-27T06:01:10.101Z,20.14
2022-08-27T06:02:13.170Z,20.15
2022-08-27T06:03:14.757Z,20.15
2022-08-27T06:04:18.851Z,20.13
2022-08-27T06:05:20.794Z,20.12
2022-08-27T06:06:24.931Z,20.11
2022-08-27T06:07:26.592Z,20.13
2022-08-27T06:08:29.257Z,20.14
2022-08-27T06:09:30.864Z,20.15
2022-08-27T06:10:33.613Z,20.15
2022-08-27T06:11:36.213Z,20.17
2022-08-27T06:12:39.023Z,20.18
2022-08-27T06:13:40.811Z,20.19
2022-08-27T06:14:46.251Z,20.19
2022-08-27T06:15:47.923Z,20.17
2022-08-27T06:16:50.754Z,20.18
2022-08-27T06:17:53.028Z,20.18
2022-08-27T06:18:57.524Z,20.18
2022-08-27T06:19:59.303Z,20.19
2022-08-27T06:21:02.061Z,20.20
2022-08-27T06:22:10.636Z,20.20
2022-08-27T06:23:13.642Z,20.21
2022-08-27T06:24:15.232Z,20.23
2022-08-27T06:25:18.103Z,20.24
2022-08-27T06:26:22.769Z,20.25
2022-08-27T06:27:25.537Z,20.23
2022-08-27T06:28:29.562Z,20.21
2022-08-27T06:29:34.983Z,20.19
2022-08-27T06:30:36.596Z,20.20
2022-08-27T06:31:40.684Z,20.20
2022-08-27T06:32:42.518Z,20.24
2022-08-27T06:33:46.305Z,20.27
2022-08-27T06:34:48.626Z,20.27
2022-08-27T06:35:51.522Z,20.31
2022-08-27T06:36:53.500Z,20.31
2022-08-27T06:37:57.445Z,20.34
2022-08-27T06:38:59.875Z,20.35
2022-08-27T06:40:02.467Z,20.36
2022-08-27T06:41:04.432Z,20.34
2022-08-27T06:42:07.685Z,20.34
2022-08-27T06:43:09.306Z,20.33
2022-08-27T06:44:13.054Z,20.32
2022-08-27T06:45:15.075Z,20.32
2022-08-27T06:46:19.968Z,20.33
2022-08-27T06:47:22.559Z,20.32
2022-08-27T06:48:24.409Z,20.33
2022-08-27T06:49:27.123Z,20.37
2022-08-27T06:50:28.829Z,20.37
2022-08-27T06:51:33.543Z,20.38
2022-08-27T06:52:35.235Z,20.37
2022-08-27T06:53:39.211Z,20.37
2022-08-27T06:54:40.857Z,20.36
2022-08-27T06:55:44.224Z,20.38
2022-08-27T06:56:46.219Z,20.38
2022-08-27T06:57:48.836Z,20.36
2022-08-27T06:58:52.651Z,20.34
2022-08-27T06:59:55.262Z,20.32
2022-08-27T07:00:57.192Z,20.31
2022-08-27T07:01:59.979Z,20.31
2022-08-27T07:03:03.889Z,20.33
2022-08-27T07:04:09.112Z,20.34
2022-08-27T07:05:11.924Z,20.33
2022-08-27T07:06:16.389Z,20.35
2022-08-27T07:07:31.742Z,20.36
2022-08-27T07:08:39.670Z,20.36
2022-08-27T07:09:42.218Z,20.37
2022-08-27T07:10:43.950Z,20.38
2022-08-27T07:11:46.532Z,20.38
2022-08-27T07:12:48.152Z,20.38
2022-08-27T07:13:51.360Z,20.37
2022-08-27T07:14:53.059Z,20.39
2022-08-27T07:15:56.091Z,20.39
2022-08-27T07:16:57.692Z,20.39
2022-08-27T07:18:00.484Z,20.37
2022-08-27T07:19:05.336Z,20.37
2022-08-27T07:20:09.541Z,20.38
2022-08-27T07:21:11.315Z,20.40
2022-08-27T07:22:14.221Z,20.41
2022-08-27T07:23:15.873Z,20.41
2022-08-27T07:24:19.790Z,20.43
2022-08-27T07:25:21.768Z,20.43
2022-08-27T07:26:24.918Z,20.44
2022-08-27T07:27:27.606Z,20.47
2022-08-27T07:28:30.740Z,20.50
2022-08-27T07:29:32.846Z,20.53
2022-08-27T07:30:37.463Z,20.58
2022-08-27T07:31:41.953Z,20.63
2022-08-27T07:32:44.673Z,20.68
2022-08-27T07:33:52.378Z,20.71
2022-08-27T07:34:55.851Z,20.73
2022-08-27T07:35:57.523Z,20.75
2022-08-27T07:37:00.144Z,20.75
2022-08-27T07:38:01.837Z,20.74
2022-08-27T07:39:04.899Z,20.75
2022-08-27T07:40:10.252Z,20.76
2022-08-27T07:41:15.431Z,20.78
2022-08-27T07:42:35.550Z,20.78
2022-08-27T07:43:56.400Z,20.78
2022-08-27T07:44:59.022Z,20.74
2022-08-27T07:46:02.066Z,20.72
2022-08-27T07:47:04.703Z,20.69
2022-08-27T07:48:07.373Z,20.69
2022-08-27T07:49:13.800Z,20.68
2022-08-27T07:50:16.385Z,20.68
2022-08-27T07:51:20.782Z,20.67
2022-08-27T07:52:26.449Z,20.68
2022-08-27T07:53:28.307Z,20.70
2022-08-27T07:54:30.939Z,20.74
2022-08-27T07:55:35.878Z,20.77
2022-08-27T07:56:38.471Z,20.81
2022-08-27T07:57:40.869Z,20.85
2022-08-27T07:58:44.023Z,20.88
2022-08-27T07:59:48.088Z,20.88
2022-08-27T08:00:49.865Z,20.89
2022-08-27T08:01:52.821Z,20.89
2022-08-27T08:02:54.542Z,20.92
2022-08-27T08:03:57.822Z,20.94
2022-08-27T08:04:59.848Z,20.97
2022-08-27T08:06:05.920Z,21.00
2022-08-27T08:07:07.534Z,21.03
2022-08-27T08:08:10.414Z,21.06
2022-08-27T08:09:12.373Z,21.11
2022-08-27T08:10:15.128Z,21.16
2022-08-27T08:11:18.763Z,21.19
2022-08-27T08:12:26.607Z,21.22
2022-08-27T08:13:30.079Z,21.23
2022-08-27T08:14:33.218Z,21.23
2022-08-27T08:15:35.541Z,21.25
2022-08-27T08:16:38.247Z,21.24
2022-08-27T08:17:40.372Z,21.22
2022-08-27T08:18:43.246Z,21.22
2022-08-27T08:19:57.220Z,21.21
2022-08-27T08:21:11.169Z,21.19
2022-08-27T08:22:12.917Z,21.20
2022-08-27T08:23:15.950Z,21.21
2022-08-27T08:24:18.274Z,21.22
2022-08-27T08:25:21.025Z,21.27
2022-08-27T08:26:24.198Z,21.30
2022-08-27T08:27:27.537Z,21.34
2022-08-27T08:28:31.461Z,21.35
2022-08-27T08:29:34.234Z,21.37
2022-08-27T08:30:35.950Z,21.40
2022-08-27T08:31:38.644Z,21.43
2022-08-27T08:32:40.363Z,21.47
2022-08-27T08:33:43.032Z,21.49
2022-08-27T08:34:44.647Z,21.53
2022-08-27T08:35:48.773Z,21.55
2022-08-27T08:36:54.916Z,21.57
2022-08-27T08:37:57.952Z,21.57
2022-08-27T08:38:59.701Z,21.59
2022-08-27T08:40:03.238Z,21.60
2022-08-27T08:41:07.232Z,21.62
2022-08-27T08:42:28.038Z,21.61
2022-08-27T08:43:33.499Z,21.58
2022-08-27T08:44:41.574Z,21.55
2022-08-27T08:45:45.158Z,21.50
2022-08-27T08:46:53.513Z,21.52
2022-08-27T08:48:04.942Z,21.54
2022-08-27T08:49:16.294Z,21.56
2022-08-27T08:50:26.175Z,21.59
2022-08-27T08:51:34.140Z,21.60
2022-08-27T08:52:43.629Z,21.63
2022-08-27T08:53:53.242Z,21.66
2022-08-27T08:54:58.164Z,21.67
2022-08-27T08:56:04.383Z,21.68
2022-08-27T08:57:18.667Z,21.70
2022-08-27T08:58:34.493Z,21.70
2022-08-27T08:59:38.767Z,21.71
2022-08-27T09:00:44.582Z,21.70
2022-08-27T09:01:49.669Z,21.70
2022-08-27T09:02:54.741Z,21.71
2022-08-27T09:04:00.424Z,21.71
2022-08-27T09:05:07.288Z,21.71
2022-08-27T09:06:15.276Z,21.73
2022-08-27T09:07:26.187Z,21.75
2022-08-27T09:08:37.922Z,21.75
2022-08-27T09:09:51.801Z,21.74
2022-08-27T09:11:00.812Z,21.71
2022-08-27T09:12:10.712Z,21.70
2022-08-27T09:13:21.492Z,21.68
2022-08-27T09:14:33.867Z,21.66
2022-08-27T09:15:38.052Z,21.65
2022-08-27T09:16:40.740Z,21.66
2022-08-27T09:17:42.909Z,21.65
2022-08-27T09:18:51.072Z,21.66
2022-08-27T09:19:53.175Z,21.66
2022-08-27T09:21:01.668Z,21.66
2022-08-27T09:22:19.032Z,21.66
2022-08-27T09:23:25.771Z,21.66
2022-08-27T09:24:38.192Z,21.65
2022-08-27T09:25:42.489Z,21.63
2022-08-27T09:26:45.772Z,21.64
2022-08-27T09:27:49.152Z,21.65
2022-08-27T09:29:15.735Z,21.65
2022-08-27T09:30:27.437Z,21.65
2022-08-27T09:31:36.636Z,21.65
2022-08-27T09:32:40.171Z,21.67
2022-08-27T09:33:56.445Z,21.68
2022-08-27T09:35:02.685Z,21.69
2022-08-27T09:36:08.683Z,21.70
2022-08-27T09:37:16.181Z,21.71
2022-08-27T09:38:26.855Z,21.74
2022-08-27T09:39:34.805Z,21.76
2022-08-27T09:40:41.373Z,21.79
2022-08-27T09:41:47.098Z,21.81
2022-08-27T09:42:53.126Z,21.87
2022-08-27T09:43:59.359Z,21.90
2022-08-27T09:45:01.986Z,21.93
2022-08-27T09:46:18.305Z,21.97
2022-08-27T09:47:20.961Z,21.99
2022-08-27T09:48:26.477Z,22.02
2022-08-27T09:49:29.664Z,22.02
2022-08-27T09:50:38.613Z,22.03
2022-08-27T09:51:47.280Z,22.05
2022-08-27T09:52:55.134Z,22.09
2022-08-27T09:54:00.815Z,22.11
2022-08-27T09:55:02.829Z,22.13
2022-08-27T09:56:10.597Z,22.16
2022-08-27T09:57:26.259Z,22.16
2022-08-27T09:58:48.252Z,22.14
2022-08-27T09:59:54.336Z,22.12
2022-08-27T10:01:02.841Z,22.10
2022-08-27T10:02:15.145Z,22.07
2022-08-27T10:03:22.524Z,22.09
2022-08-27T10:04:28.335Z,22.10
2022-08-27T10:05:36.443Z,22.12
2022-08-27T10:06:44.947Z,22.15
2022-08-27T10:07:53.761Z,22.17
2022-08-27T10:09:06.526Z,22.21
2022-08-27T10:10:17.859Z,22.25
2022-08-27T10:11:25.948Z,22.28
2022-08-27T10:12:34.976Z,22.29
2022-08-27T10:13:46.632Z,22.32
2022-08-27T10:14:52.555Z,22.36
2022-08-27T10:16:09.684Z,22.38
2022-08-27T10:17:20.243Z,22.40
2022-08-27T10:18:32.884Z,22.42
2022-08-27T10:19:54.220Z,22.45
2022-08-27T10:21:05.997Z,22.49
2022-08-27T10:22:27.277Z,22.50
2022-08-27T10:23:35.355Z,22.48
2022-08-27T10:24:51.859Z,22.45
2022-08-27T10:26:00.168Z,22.44
2022-08-27T10:27:10.467Z,22.43
2022-08-27T10:28:24.405Z,22.42
2022-08-27T10:29:38.356Z,22.41
2022-08-27T10:30:59.452Z,22.40
2022-08-27T10:32:11.715Z,22.41
2022-08-27T10:33:27.119Z,22.43
2022-08-27T10:34:43.347Z,22.42
2022-08-27T10:35:55.005Z,22.42
2022-08-27T10:37:07.954Z,22.41
2022-08-27T10:38:15.742Z,22.40
2022-08-27T10:39:40.059Z,22.39
2022-08-27T10:40:50.849Z,22.39
2022-08-27T10:42:11.514Z,22.41
2022-08-27T10:43:28.357Z,22.41
2022-08-27T10:44:52.390Z,22.41
2022-08-27T10:46:05.017Z,22.44
2022-08-27T10:47:16.591Z,22.48
2022-08-27T10:48:30.046Z,22.53
2022-08-27T10:49:43.629Z,22.58
2022-08-27T10:50:50.970Z,22.63
2022-08-27T10:52:04.222Z,22.66
2022-08-27T10:53:19.250Z,22.71
2022-08-27T10:54:28.196Z,22.76
2022-08-27T10:55:33.996Z,22.83
2022-08-27T10:56:40.319Z,22.89
2022-08-27T10:58:07.795Z,22.92
2022-08-27T10:59:25.499Z,22.94
2022-08-27T11:00:34.595Z,22.96
2022-08-27T11:01:48.524Z,22.98
2022-08-27T11:02:55.108Z,22.98
2022-08-27T11:04:04.118Z,22.99
2022-08-27T11:05:16.265Z,23.03
2022-08-27T11:06:25.779Z,23.06
2022-08-27T11:07:33.500Z,23.11
2022-08-27T11:08:41.819Z,23.14
2022-08-27T11:09:50.798Z,23.14
2022-08-27T11:11:13.694Z,23.18
2022-08-27T11:12:29.136Z,23.19
2022-08-27T11:13:34.113Z,23.24
2022-08-27T11:14:44.237Z,23.28
2022-08-27T11:15:49.227Z,23.32
2022-08-27T11:17:14.151Z,23.37
2022-08-27T11:18:22.206Z,23.39
2022-08-27T11:19:32.635Z,23.38
2022-08-27T11:20:41.291Z,23.39
2022-08-27T11:21:48.354Z,23.39
2022-08-27T11:22:56.126Z,23.40
2022-08-27T11:24:02.630Z,23.40
2022-08-27T11:25:15.004Z,23.39
2022-08-27T11:26:16.691Z,23.40
2022-08-27T11:27:24.880Z,23.39
2022-08-27T11:28:37.308Z,23.41
2022-08-27T11:29:49.540Z,23.45
2022-08-27T11:31:00.687Z,23.49
2022-08-27T11:32:11.992Z,23.53
2022-08-27T11:33:21.244Z,23.54
2022-08-27T11:34:27.430Z,23.57
2022-08-27T11:35:41.791Z,23.58
2022-08-27T11:37:06.031Z,23.60
2022-08-27T11:38:30.042Z,23.64
2022-08-27T11:39:51.869Z,23.67
2022-08-27T11:41:06.568Z,23.69
2022-08-27T11:42:15.013Z,23.78
2022-08-27T11:43:20.467Z,23.84
2022-08-27T11:44:26.643Z,23.93
2022-08-27T11:45:31.141Z,23.98
2022-08-27T11:46:44.719Z,24.01
2022-08-27T11:47:56.761Z,24.04
2022-08-27T11:49:01.714Z,24.07
2022-08-27T11:50:08.515Z,24.09
2022-08-27T11:51:14.311Z,24.07
2022-08-27T11:52:25.092Z,24.10
2022-08-27T11:53:30.735Z,24.13
2022-08-27T11:54:49.204Z,24.19
2022-08-27T11:55:50.773Z,24.23
2022-08-27T11:56:53.494Z,24.24
2022-08-27T11:58:08.761Z,24.25
2022-08-27T11:59:21.293Z,24.25
2022-08-27T12:00:34.380Z,24.24
2022-08-27T12:01:38.559Z,24.21
2022-08-27T12:02:40.903Z,24.18
2022-08-27T12:03:44.924Z,24.17
2022-08-27T12:04:47.482Z,24.18
2022-08-27T12:06:11.167Z,24.20
2022-08-27T12:07:29.281Z,24.24
2022-08-27T12:08:35.141Z,24.26
2022-08-27T12:09:54.169Z,24.28
2022-08-27T12:11:12.581Z,24.32
2022-08-27T12:12:20.575Z,24.36
2022-08-27T12:13:29.515Z,24.40
2022-08-27T12:14:44.563Z,24.38
2022-08-27T12:16:04.610Z,24.38
2022-08-27T12:17:14.382Z,24.35
2022-08-27T12:18:36.629Z,24.34
2022-08-27T12:19:56.304Z,24.32
2022-08-27T12:21:10.547Z,24.32
2022-08-27T12:22:25.217Z,24.31
2022-08-27T12:23:42.599Z,24.31
2022-08-27T12:24:52.027Z,24.31
2022-08-27T12:26:00.625Z,24.33
2022-08-27T12:27:16.920Z,24.32
2022-08-27T12:28:26.855Z,24.33
2022-08-27T12:29:41.022Z,24.31
2022-08-27T12:30:50.317Z,24.28
2022-08-27T12:32:01.469Z,24.27
2022-08-27T12:33:12.752Z,24.25
2022-08-27T12:34:16.592Z,24.26
2022-08-27T12:35:27.778Z,24.28
2022-08-27T12:36:33.476Z,24.30
2022-08-27T12:37:40.436Z,24.30
2022-08-27T12:38:50.643Z,24.31
2022-08-27T12:39:56.522Z,24.32
2022-08-27T12:41:03.825Z,24.31
2022-08-27T12:42:14.226Z,24.34
2022-08-27T12:43:20.727Z,24.37
2022-08-27T12:44:28.558Z,24.39
2022-08-27T12:45:30.824Z,24.44
2022-08-27T12:46:34.040Z,24.48
2022-08-27T12:47:42.671Z,24.55
2022-08-27T12:49:35.855Z,24.58
2022-08-27T12:50:30.547Z,24.58
2022-08-27T12:51:36.141Z,24.56
2022-08-27T12:52:54.498Z,24.58
2022-08-27T12:54:05.631Z,24.60
2022-08-27T12:55:18.513Z,24.61
2022-08-27T12:56:35.551Z,24.61
2022-08-27T12:57:45.033Z,24.62
2022-08-27T12:58:57.238Z,24.61
2022-08-27T13:00:10.049Z,24.65
2022-08-27T13:01:34.188Z,24.70
2022-08-27T13:03:13.672Z,24.77
2022-08-27T13:04:21.473Z,24.83
2022-08-27T13:05:26.775Z,24.87
2022-08-27T13:06:32.975Z,24.90
2022-08-27T13:07:41.215Z,24.91
2022-08-27T13:08:43.849Z,24.91
2022-08-27T13:09:46.380Z,24.90
2022-08-27T13:10:48.965Z,24.94
2022-08-27T13:11:55.602Z,24.96
2022-08-27T13:13:04.327Z,24.94
2022-08-27T13:14:09.613Z,24.93
2022-08-27T13:15:15.617Z,24.90
2022-08-27T13:16:20.417Z,24.88
2022-08-27T13:17:23.365Z,24.87
2022-08-27T13:18:29.974Z,24.89
2022-08-27T13:19:36.541Z,24.90
2022-08-27T13:20:41.500Z,24.90
2022-08-27T13:21:56.230Z,24.88
2022-08-27T13:22:57.882Z,24.86
2022-08-27T13:24:02.915Z,24.84
2022-08-27T13:25:05.769Z,24.82
2022-08-27T13:26:10.416Z,24.78
2022-08-27T13:27:12.353Z,24.74
2022-08-27T13:28:16.977Z,24.71
2022-08-27T13:29:19.781Z,24.70
2022-08-27T13:30:35.124Z,24.72
2022-08-27T13:31:39.157Z,24.73
2022-08-27T13:32:41.622Z,24.76
2022-08-27T13:33:45.469Z,24.78
2022-08-27T13:34:47.927Z,24.77
2022-08-27T13:35:52.355Z,24.77
2022-08-27T13:36:58.142Z,24.76
2022-08-27T13:38:03.225Z,24.75
2022-08-27T13:39:07.188Z,24.73
2022-08-27T13:40:10.623Z,24.69
2022-08-27T13:41:23.259Z,24.70
2022-08-27T13:42:27.031Z,24.71
2022-08-27T13:43:35.307Z,24.76
2022-08-27T13:44:41.046Z,24.81
2022-08-27T13:45:51.409Z,24.85
2022-08-27T13:47:00.755Z,24.86
2022-08-27T13:48:04.177Z,24.87
2022-08-27T13:49:08.972Z,24.90
2022-08-27T13:50:17.918Z,24.90
2022-08-27T13:51:29.187Z,24.89
2022-08-27T13:52:34.099Z,24.89
2022-08-27T13:53:55.617Z,24.91
2022-08-27T13:55:05.693Z,24.95
2022-08-27T13:56:07.889Z,25.00
2022-08-27T13:57:13.456Z,25.07
2022-08-27T13:58:19.731Z,25.10
2022-08-27T13:59:26.484Z,25.12
2022-08-27T14:00:31.678Z,25.16
2022-08-27T14:01:34.407Z,25.16
2022-08-27T14:02:36.231Z,25.18
2022-08-27T14:03:49.000Z,25.19
2022-08-27T14:05:05.745Z,25.18
2022-08-27T14:06:08.341Z,25.19
2022-08-27T14:07:15.280Z,25.21
2022-08-27T14:08:19.310Z,25.24
2022-08-27T14:09:25.989Z,25.27
2022-08-27T14:10:32.706Z,25.27
2022-08-27T14:11:35.450Z,25.26
2022-08-27T14:12:41.097Z,25.24